KBPI

Details ICAO KBPI
Name BIG PINEY MARBLETON
Region United States
Timezone America/Denver (UTC-6.0)
Plans Departing 4
Arriving 4
Stats Elevation 6,990 ft / 2,131 m (AMSL)
Location 42.580725° -110.107734°
Runways 2
Magnetic Variation 10.929° E
Sunrise 2018-05-22 11:53:19 UTC / 2018-05-22 05:53:19 Local
Sunset 2018-05-23 02:43:47 UTC / 2018-05-22 20:43:47 Local
Advertisement - Login to hide

Runways

ID Width Length Bearing (true) Bearing (mag) Surface Threshold Offset Overrun Length
08 141 ft / 43 m 3,173 ft / 967 m 93.34° 82.41° Dirt 0 ft / 0 m 0 ft / 0 m
13 75 ft / 23 m 6,794 ft / 2,071 m 147.80° 136.87° Asphalt 0 ft / 0 m 0 ft / 0 m
26 141 ft / 43 m 3,173 ft / 967 m 273.35° 262.42° Dirt 0 ft / 0 m 0 ft / 0 m
31 75 ft / 23 m 6,794 ft / 2,071 m 327.80° 316.87° Asphalt 0 ft / 0 m 0 ft / 0 m

Map

Weather


0- 5 10 15 20 25 30 35+ Temperature / ° C

Clouds and Precipitation
Forecast for 2018-05-23 00:00 UTC. Updated an hour ago

Ground ~20,000 ft ~40,000 ft Winds

METAR

KBPI 222353Z AUTO 03011KT 10SM BKN110 12/08 A3006 RMK AO2 RAE38 SLP125 P0000 60009 T01220078 10189 20094 58005 $

TAF

KBPI 222324Z 2300/2324 30012KT P6SM VCTS SCT050CB BKN080 FM230600 VRB05KT P6SM -SHRA SCT012 OVC025 FM231600 22008KT P6SM VCSH SCT030 OVC040

Frequencies

Recorded 135.22 MHz ASOS
Unicom 122.80 MHz CTAF/UNICOM
Warning: Do not use this data for real-world aviation or navigation. No guarantee of current accuracy is given.